Time;durP1;ratioP1;P1;durP2;ratioP2;P2;SDS_P1;SDS_P2;PMS_P1;PMS_P2;Temp;Humidity;BMP_temperature;BMP_pressure;BME280_temperature;BME280_humidity;BME280_pressure;Samples;Min_cycle;Max_cycle;Signal;HPM_P1;HPM_P2
2023/08/17 00:05:33;;;;;;;5.43;2.10;;;18.50;1.00;;;;;;20691836;28;20381;-41
2023/08/17 00:15:34;;;;;;;3.05;1.60;;;18.40;1.00;;;;;;20697335;28;20464;-41
2023/08/17 00:25:34;;;;;;;5.37;1.87;;;18.30;1.00;;;;;;20695168;28;20042;-41
2023/08/17 00:35:35;;;;;;;4.28;2.35;;;18.20;1.00;;;;;;20695879;28;20053;-41
2023/08/17 00:45:36;;;;;;;4.78;1.70;;;18.20;1.00;;;;;;20695848;28;20080;-41
2023/08/17 00:55:38;;;;;;;5.45;1.50;;;18.10;1.00;;;;;;20688792;28;20053;-41
2023/08/17 01:05:38;;;;;;;3.83;1.30;;;18.10;1.00;;;;;;20693488;28;20178;-41
2023/08/17 01:15:46;;;;;;;4.53;1.67;;;17.90;1.00;;;;;;20694157;28;20420;-41
2023/08/17 01:25:47;;;;;;;3.22;1.65;;;17.90;1.00;;;;;;20690405;28;20033;-41
2023/08/17 01:35:58;;;;;;;6.07;1.63;;;17.60;1.00;;;;;;20693995;28;20197;-41
2023/08/17 01:46:00;;;;;;;4.53;1.80;;;17.50;1.00;;;;;;20683780;28;20037;-41
2023/08/17 01:56:00;;;;;;;4.15;2.03;;;17.40;1.00;;;;;;20694352;28;20034;-41
2023/08/17 02:06:01;;;;;;;5.47;1.92;;;17.10;1.00;;;;;;20685540;28;20038;-41
2023/08/17 02:16:03;;;;;;;6.03;2.20;;;17.10;1.00;;;;;;20659270;28;20072;-41
2023/08/17 02:26:03;;;;;;;5.03;1.95;;;17.00;1.00;;;;;;20694567;28;20566;-41
2023/08/17 02:36:04;;;;;;;6.47;1.80;;;17.00;1.00;;;;;;20689046;28;20057;-41
2023/08/17 02:46:07;;;;;;;6.65;2.03;;;16.90;1.00;;;;;;20693710;28;20064;-41
2023/08/17 02:56:11;;;;;;;6.13;1.80;;;17.00;1.00;;;;;;20690448;28;20133;-41
2023/08/17 03:06:12;;;;;;;5.75;2.10;;;16.90;1.00;;;;;;20690064;28;20073;-41
2023/08/17 03:16:12;;;;;;;4.20;2.30;;;16.80;1.00;;;;;;20703324;28;20161;-41
2023/08/17 03:26:13;;;;;;;6.65;2.63;;;16.80;1.00;;;;;;20703441;28;20424;-41
2023/08/17 03:36:13;;;;;;;4.45;2.00;;;16.90;1.00;;;;;;20700802;28;20045;-41
2023/08/17 03:46:14;;;;;;;5.60;1.80;;;16.90;1.00;;;;;;20703059;28;20041;-41
2023/08/17 03:56:15;;;;;;;3.13;1.80;;;16.80;1.00;;;;;;20698765;28;20877;-41
2023/08/17 04:06:15;;;;;;;3.90;1.65;;;17.00;1.00;;;;;;20691090;28;20030;-41
2023/08/17 04:16:16;;;;;;;5.30;1.90;;;16.90;1.00;;;;;;20687767;28;20030;-41
2023/08/17 04:26:16;;;;;;;6.88;1.80;;;16.90;1.00;;;;;;20695368;28;20469;-41
2023/08/17 04:36:17;;;;;;;3.97;1.50;;;17.00;1.00;;;;;;20692757;28;20111;-41
2023/08/17 04:46:17;;;;;;;4.20;1.60;;;16.90;1.00;;;;;;20689280;28;20163;-41
2023/08/17 04:56:18;;;;;;;3.72;1.38;;;16.90;1.00;;;;;;20688846;28;20472;-41
2023/08/17 05:06:19;;;;;;;4.27;1.60;;;16.80;1.00;;;;;;20694860;28;20042;-41
2023/08/17 05:16:19;;;;;;;4.30;1.65;;;16.80;1.00;;;;;;20695216;28;20464;-41
2023/08/17 05:26:20;;;;;;;4.43;1.70;;;16.90;1.00;;;;;;20695527;28;20030;-41
2023/08/17 05:36:20;;;;;;;4.47;1.35;;;16.90;1.00;;;;;;20689583;28;20497;-41
2023/08/17 05:46:21;;;;;;;3.72;1.50;;;16.90;1.00;;;;;;20682310;28;20040;-41
2023/08/17 05:56:22;;;;;;;4.85;1.60;;;17.00;1.00;;;;;;20687979;28;21686;-41
2023/08/17 06:06:23;;;;;;;4.00;1.60;;;17.20;1.00;;;;;;20705652;28;20519;-41
2023/08/17 06:16:23;;;;;;;3.53;1.80;;;17.30;1.00;;;;;;20692894;28;20041;-41
2023/08/17 06:26:24;;;;;;;5.85;1.60;;;17.40;1.00;;;;;;20691039;28;20045;-41
2023/08/17 06:36:24;;;;;;;4.75;1.48;;;17.40;1.00;;;;;;20668605;28;20034;-41
2023/08/17 06:46:25;;;;;;;3.88;1.90;;;17.50;1.00;;;;;;20709565;28;20037;-41
2023/08/17 06:56:26;;;;;;;5.33;1.93;;;17.80;1.00;;;;;;20705661;28;20420;-41
2023/08/17 07:06:26;;;;;;;6.85;2.20;;;17.90;1.00;;;;;;20705773;28;20049;-41
2023/08/17 07:16:27;;;;;;;4.63;2.40;;;17.90;1.00;;;;;;20703298;28;20082;-41
2023/08/17 07:26:27;;;;;;;6.47;1.90;;;18.00;1.00;;;;;;20692451;28;20064;-41
2023/08/17 07:36:28;;;;;;;5.03;1.90;;;18.20;1.00;;;;;;20697722;28;20074;-41
2023/08/17 07:46:28;;;;;;;4.22;2.00;;;18.40;1.00;;;;;;20684882;28;22243;-41
2023/08/17 07:56:29;;;;;;;6.22;1.58;;;18.60;1.00;;;;;;20720679;28;20038;-41
2023/08/17 08:06:29;;;;;;;3.40;1.45;;;18.80;1.00;;;;;;20712466;28;20045;-41
2023/08/17 08:16:30;;;;;;;5.82;1.83;;;18.80;1.00;;;;;;20712410;28;20409;-41
2023/08/17 08:26:31;;;;;;;6.35;1.40;;;19.00;1.00;;;;;;20716733;28;20034;-41
2023/08/17 08:36:31;;;;;;;4.90;1.52;;;19.10;1.00;;;;;;20706535;28;20400;-41
2023/08/17 08:46:34;;;;;;;7.43;2.20;;;19.60;1.00;;;;;;20709204;28;20030;-41
2023/08/17 08:56:37;;;;;;;6.97;1.92;;;19.70;1.00;;;;;;20710689;28;20030;-41
2023/08/17 09:06:39;;;;;;;4.30;1.77;;;19.90;1.00;;;;;;20727714;28;20036;-41
2023/08/17 09:16:40;;;;;;;5.78;1.73;;;20.20;1.00;;;;;;20707440;28;20401;-41
2023/08/17 09:26:40;;;;;;;3.83;1.85;;;20.60;1.00;;;;;;20713393;28;20280;-41
2023/08/17 09:36:41;;;;;;;4.60;1.70;;;20.90;1.00;;;;;;20718715;28;20409;-42
2023/08/17 09:46:44;;;;;;;2.55;1.40;;;21.00;1.00;;;;;;20701193;28;20111;-41
2023/08/17 09:56:44;;;;;;;3.20;1.30;;;21.50;1.00;;;;;;20717037;28;20037;-41
2023/08/17 10:06:47;;;;;;;4.22;1.67;;;22.00;1.00;;;;;;20705166;28;20053;-42
2023/08/17 10:16:56;;;;;;;3.85;1.85;;;22.30;1.00;;;;;;20717181;28;20064;-41
2023/08/17 10:26:57;;;;;;;3.47;1.83;;;22.00;1.00;;;;;;20700257;28;20053;-41
2023/08/17 10:37:00;;;;;;;4.15;1.70;;;21.70;1.00;;;;;;20722127;28;20236;-41
2023/08/17 10:47:18;;;;;;;7.32;2.40;;;22.10;1.00;;;;;;20696499;28;20081;-42
2023/08/17 10:57:35;;;;;;;4.53;2.30;;;22.40;1.00;;;;;;20723011;28;20123;-41
2023/08/17 11:07:43;;;;;;;6.10;2.17;;;22.30;1.00;;;;;;20691937;28;20552;-42
2023/08/17 11:17:44;;;;;;;5.50;3.20;;;21.80;1.00;;;;;;20716181;28;20580;-41
2023/08/17 11:27:46;;;;;;;7.03;2.90;;;21.50;1.00;;;;;;20716671;28;20037;-42
2023/08/17 11:37:50;;;;;;;6.38;3.03;;;21.60;1.00;;;;;;20724028;28;20048;-42
2023/08/17 11:47:51;;;;;;;7.45;3.13;;;22.10;1.00;;;;;;20717892;28;20034;-42
2023/08/17 11:57:52;;;;;;;7.00;2.75;;;22.20;1.00;;;;;;20712503;28;20602;-41
2023/08/17 12:07:53;;;;;;;5.28;2.85;;;22.00;1.00;;;;;;20709642;28;20068;-41
2023/08/17 12:17:59;;;;;;;5.25;2.75;;;21.80;1.00;;;;;;20722140;28;20032;-41
2023/08/17 12:28:01;;;;;;;6.40;3.28;;;21.60;1.00;;;;;;20727344;28;20042;-41
2023/08/17 12:38:01;;;;;;;6.18;3.30;;;21.60;1.00;;;;;;20723448;28;20441;-42
2023/08/17 12:48:02;;;;;;;5.18;2.63;;;21.70;1.00;;;;;;20712240;28;20049;-42
2023/08/17 12:58:03;;;;;;;4.75;2.72;;;21.60;1.00;;;;;;20724076;28;20037;-42
2023/08/17 13:08:04;;;;;;;8.63;2.90;;;21.50;1.00;;;;;;20713651;28;20125;-41
2023/08/17 13:18:05;;;;;;;4.97;2.60;;;21.20;1.00;;;;;;20699616;28;20037;-41
2023/08/17 13:28:05;;;;;;;4.68;3.28;;;21.30;1.00;;;;;;20721199;28;20072;-41
2023/08/17 13:38:06;;;;;;;4.93;2.73;;;21.30;1.00;;;;;;20709761;28;20179;-42
2023/08/17 13:48:07;;;;;;;6.53;3.33;;;21.20;1.00;;;;;;20700317;28;20046;-41
2023/08/17 13:58:10;;;;;;;6.13;3.33;;;21.20;1.00;;;;;;20726990;28;20069;-41
2023/08/17 14:08:11;;;;;;;8.85;4.75;;;21.10;1.00;;;;;;20716159;28;20440;-41
2023/08/17 14:18:11;;;;;;;5.82;2.90;;;21.00;1.00;;;;;;20702904;28;20041;-41
2023/08/17 14:28:12;;;;;;;4.72;2.58;;;20.80;1.00;;;;;;20707331;28;20076;-42
2023/08/17 14:38:13;;;;;;;5.53;3.00;;;20.70;1.00;;;;;;20712162;28;20052;-41
2023/08/17 14:48:14;;;;;;;5.07;2.80;;;20.80;1.00;;;;;;20714970;28;20396;-42
2023/08/17 14:58:15;;;;;;;6.35;3.28;;;20.80;1.00;;;;;;20711473;28;20037;-41
2023/08/17 15:08:16;;;;;;;6.50;3.40;;;20.80;1.00;;;;;;20722554;28;20045;-41
2023/08/17 15:18:17;;;;;;;7.18;3.88;;;20.90;1.00;;;;;;20723094;28;20087;-42
2023/08/17 15:28:17;;;;;;;7.28;4.80;;;21.00;1.00;;;;;;20714630;28;20046;-41
2023/08/17 15:38:18;;;;;;;7.32;4.70;;;21.00;1.00;;;;;;20716387;28;20571;-41
2023/08/17 15:48:19;;;;;;;5.72;4.30;;;20.80;1.00;;;;;;20688251;28;20098;-41
2023/08/17 15:58:19;;;;;;;6.97;5.05;;;20.70;1.00;;;;;;20700898;28;20045;-41
2023/08/17 16:08:20;;;;;;;5.57;4.23;;;20.80;1.00;;;;;;20720188;28;20655;-41
2023/08/17 16:18:20;;;;;;;7.10;3.92;;;20.70;1.00;;;;;;20649813;28;20038;-41
2023/08/17 16:28:21;;;;;;;5.40;3.88;;;20.60;1.00;;;;;;20692748;28;20112;-41
2023/08/17 16:38:21;;;;;;;5.13;4.00;;;20.50;1.00;;;;;;20687763;28;20409;-41
2023/08/17 16:48:22;;;;;;;7.93;4.53;;;20.50;1.00;;;;;;20679752;28;20084;-41
2023/08/17 16:58:23;;;;;;;6.72;4.90;;;20.40;1.00;;;;;;20718357;28;20041;-41
2023/08/17 17:08:23;;;;;;;8.02;5.38;;;20.30;1.00;;;;;;20706125;28;20100;-41
2023/08/17 17:18:24;;;;;;;7.05;5.25;;;20.20;1.00;;;;;;20708949;28;20364;-41
2023/08/17 17:28:24;;;;;;;8.85;4.82;;;20.30;1.00;;;;;;20704296;28;20502;-41
2023/08/17 17:38:25;;;;;;;6.60;4.10;;;20.20;1.00;;;;;;20707999;28;20048;-41
2023/08/17 17:48:25;;;;;;;9.65;5.55;;;20.00;1.00;;;;;;20709165;28;20041;-42
2023/08/17 17:58:26;;;;;;;6.43;4.22;;;20.00;1.00;;;;;;20718559;28;20478;-41
2023/08/17 18:08:26;;;;;;;8.18;6.10;;;19.90;1.00;;;;;;20712547;28;20564;-41
2023/08/17 18:18:27;;;;;;;8.97;6.00;;;19.90;1.00;;;;;;20725043;28;20038;-41
2023/08/17 18:28:28;;;;;;;9.20;7.28;;;19.80;1.00;;;;;;20725372;28;20091;-41
2023/08/17 18:38:29;;;;;;;9.40;7.00;;;19.80;1.00;;;;;;20703426;28;20037;-42
2023/08/17 18:48:30;;;;;;;13.18;7.28;;;19.70;1.00;;;;;;20718710;28;20049;-41
2023/08/17 18:58:30;;;;;;;8.55;6.38;;;19.70;1.00;;;;;;20724486;28;20065;-41
2023/08/17 19:08:31;;;;;;;8.75;6.13;;;19.70;1.00;;;;;;20707721;28;20125;-41
2023/08/17 19:18:31;;;;;;;8.98;7.55;;;19.60;1.00;;;;;;20691769;28;20100;-41
2023/08/17 19:28:32;;;;;;;7.50;6.45;;;19.50;1.00;;;;;;20703558;28;20132;-41
2023/08/17 19:38:33;;;;;;;7.50;6.50;;;19.50;1.00;;;;;;20688138;28;20559;-41
2023/08/17 19:48:33;;;;;;;9.70;7.05;;;19.50;1.00;;;;;;20671205;28;20045;-41
2023/08/17 19:58:35;;;;;;;10.75;8.85;;;19.50;1.00;;;;;;20698732;28;20207;-41
2023/08/17 20:08:36;;;;;;;12.50;9.23;;;19.40;1.00;;;;;;20686188;28;20452;-41
2023/08/17 20:18:36;;;;;;;11.93;9.43;;;19.40;1.00;;;;;;20702327;28;20480;-41
2023/08/17 20:28:38;;;;;;;13.18;9.40;;;19.30;1.00;;;;;;20703019;28;20104;-41
2023/08/17 20:38:39;;;;;;;13.40;9.27;;;19.10;1.00;;;;;;20709224;28;20104;-41
2023/08/17 20:48:39;;;;;;;10.27;8.82;;;19.10;1.00;;;;;;20669203;28;20049;-42
2023/08/17 20:58:40;;;;;;;11.60;8.65;;;19.10;1.00;;;;;;20685441;28;20040;-41
2023/08/17 21:08:41;;;;;;;11.48;8.93;;;19.00;1.00;;;;;;20679640;28;20046;-41
2023/08/17 21:18:41;;;;;;;9.82;7.63;;;19.20;1.00;;;;;;20675868;28;20042;-41
2023/08/17 21:28:42;;;;;;;10.38;8.75;;;19.20;1.00;;;;;;20682915;28;20044;-41
2023/08/17 21:38:42;;;;;;;7.95;6.53;;;19.20;1.00;;;;;;20680560;28;20518;-41
2023/08/17 21:48:43;;;;;;;9.65;8.43;;;19.20;1.00;;;;;;20668384;28;20049;-41
2023/08/17 21:58:45;;;;;;;8.93;8.02;;;19.20;1.00;;;;;;20658896;28;20111;-43
2023/08/17 22:08:46;;;;;;;8.05;6.97;;;19.20;1.00;;;;;;20666756;28;20608;-43
2023/08/17 22:18:46;;;;;;;8.90;8.00;;;19.10;1.00;;;;;;20687119;28;20110;-42
2023/08/17 22:28:47;;;;;;;8.38;7.07;;;19.10;1.00;;;;;;20687962;28;20038;-43
2023/08/17 22:38:47;;;;;;;8.95;7.80;;;19.10;1.00;;;;;;20689818;28;20073;-44
2023/08/17 22:48:48;;;;;;;8.48;7.68;;;19.00;1.00;;;;;;20689923;28;20140;-43
2023/08/17 22:58:48;;;;;;;8.48;7.43;;;19.10;1.00;;;;;;20692157;28;20483;-43
2023/08/17 23:08:49;;;;;;;10.60;7.88;;;19.00;1.00;;;;;;20686901;28;20049;-43
2023/08/17 23:18:50;;;;;;;9.20;8.00;;;18.90;1.00;;;;;;20686257;28;20077;-43
2023/08/17 23:28:50;;;;;;;8.55;6.53;;;18.90;1.00;;;;;;20692936;28;20341;-43
2023/08/17 23:38:51;;;;;;;9.23;5.90;;;18.90;1.00;;;;;;20706230;28;22465;-43
2023/08/17 23:48:51;;;;;;;8.30;7.10;;;18.80;1.00;;;;;;20704051;28;20041;-43
2023/08/17 23:58:52;;;;;;;8.05;7.05;;;18.90;1.00;;;;;;20697672;28;20050;-43
